Illinois River (Oklahoma), Tahlequah (07196500)

StateOklahomaLatestGood (814 cfs)
RiverIllinois RiverRatingObservedEstimated
Updated2021-02-27 15:30 (45 minutes ago)Flood - The river is flooding. Obstacles can be treacherous or deadly. The river should be avoided at this stage for casual trips and definitely for the inexperienced. Trips should be attempted only with protective gear and equipment.Flood(none)3443
Discharge814 cfs (median: 713 cfs)High - The river is high and potentially dangerous, especially for the young and / or inexperienced. Normal stream obstacles are sometimes difficult to navigate. Extended distances can be attempted, but canoe travel may not be advisable.High(none)1734
Height5.72 feetGood - Conditions are ideal for a canoe or kayak. Boats typically will drag on fewer than one-quarter of riffles, if at all, and portages are unnecessary or rare. Normal float lengths can be attempted without a problem.Good300924
TrendSteady (falling over 24 hours)Low - River is low but can still be floated. Some riffles are okay but most come with significant dragging and might need a portage. Float lengths should be reduced to accommodate low flow, dragging, and portages.Low(none)607
USGSExternal icon USGS Site (External icon Google Maps)Poor - River is too low to float comfortably. Most or all riffles will drag or must be portaged and some obstacles (such as slick shelf rock) cause undue problems. Avoid the river at this stage for casual paddling trips.Poor(none)234

Trending Data

Plot Image

Trips for Illinois River (Oklahoma), Tahlequah (07196500)

DateStartEndDistanceConditionDischargeHeightFishingDetails

A total of 0 rows are displayed.

Condition Descriptions

Fishing Conditions

Fish Species

Notes

Classic Trip List

The classic River Trips application is still available for use. It is updated with the new system using a data retrofit. It is no longer maintained. The original River Trips application is no longer updated (as of 1 Dec 2016) but can be checked for errors or for the condition of the data before it was converted to the new system.

Gauge Data Table

ObservationHeightDischargeMaximum
Discharge
Minimum
Discharge
Mean
Discharge
P05P10P20P25P50
(Median)
P75P80P90P95
2021-02-27 15:30 5.72 814 9220 (1945) 92 (1964) 1160 141 238 327 363 713 1240 1320 2500 4870
2021-02-27 14:30 5.72 814 9220 (1945) 92 (1964) 1160 141 238 327 363 713 1240 1320 2500 4870
2021-02-27 13:30 5.70 801 9220 (1945) 92 (1964) 1160 141 238 327 363 713 1240 1320 2500 4870
2021-02-27 12:30 5.72 814 9220 (1945) 92 (1964) 1160 141 238 327 363 713 1240 1320 2500 4870
2021-02-27 11:30 5.72 814 9220 (1945) 92 (1964) 1160 141 238 327 363 713 1240 1320 2500 4870
2021-02-27 10:30 5.73 821 9220 (1945) 92 (1964) 1160 141 238 327 363 713 1240 1320 2500 4870
2021-02-27 09:30 5.73 821 9220 (1945) 92 (1964) 1160 141 238 327 363 713 1240 1320 2500 4870
2021-02-27 08:30 5.74 827 9220 (1945) 92 (1964) 1160 141 238 327 363 713 1240 1320 2500 4870
2021-02-27 07:30 5.74 827 9220 (1945) 92 (1964) 1160 141 238 327 363 713 1240 1320 2500 4870
2021-02-27 06:30 5.74 827 9220 (1945) 92 (1964) 1160 141 238 327 363 713 1240 1320 2500 4870
2021-02-27 05:30 5.74 827 9220 (1945) 92 (1964) 1160 141 238 327 363 713 1240 1320 2500 4870
2021-02-27 04:30 5.73 821 9220 (1945) 92 (1964) 1160 141 238 327 363 713 1240 1320 2500 4870
2021-02-27 03:30 5.73 821 9220 (1945) 92 (1964) 1160 141 238 327 363 713 1240 1320 2500 4870
2021-02-27 02:30 5.75 834 9220 (1945) 92 (1964) 1160 141 238 327 363 713 1240 1320 2500 4870
2021-02-27 01:30 5.75 834 9220 (1945) 92 (1964) 1160 141 238 327 363 713 1240 1320 2500 4870
2021-02-27 00:30 5.76 841 9220 (1945) 92 (1964) 1160 141 238 327 363 713 1240 1320 2500 4870
2021-02-26 23:30 5.75 834 13300 (2001) 94 (1964) 1280 138 230 307 376 656 1290 1410 2360 5580
2021-02-26 22:30 5.74 827 13300 (2001) 94 (1964) 1280 138 230 307 376 656 1290 1410 2360 5580
2021-02-26 21:30 5.76 841 13300 (2001) 94 (1964) 1280 138 230 307 376 656 1290 1410 2360 5580
2021-02-26 20:30 5.76 841 13300 (2001) 94 (1964) 1280 138 230 307 376 656 1290 1410 2360 5580
2021-02-26 19:30 5.75 834 13300 (2001) 94 (1964) 1280 138 230 307 376 656 1290 1410 2360 5580
2021-02-26 18:30 5.77 848 13300 (2001) 94 (1964) 1280 138 230 307 376 656 1290 1410 2360 5580
2021-02-26 17:30 5.77 848 13300 (2001) 94 (1964) 1280 138 230 307 376 656 1290 1410 2360 5580
2021-02-26 16:30 5.76 841 13300 (2001) 94 (1964) 1280 138 230 307 376 656 1290 1410 2360 5580
2021-02-26 15:30 5.78 855 13300 (2001) 94 (1964) 1280 138 230 307 376 656 1290 1410 2360 5580
2021-02-26 14:30 5.77 848 13300 (2001) 94 (1964) 1280 138 230 307 376 656 1290 1410 2360 5580
2021-02-26 13:30 5.78 855 13300 (2001) 94 (1964) 1280 138 230 307 376 656 1290 1410 2360 5580
2021-02-26 12:30 5.78 855 13300 (2001) 94 (1964) 1280 138 230 307 376 656 1290 1410 2360 5580
2021-02-26 11:30 5.79 861 13300 (2001) 94 (1964) 1280 138 230 307 376 656 1290 1410 2360 5580
2021-02-26 10:30 5.78 855 13300 (2001) 94 (1964) 1280 138 230 307 376 656 1290 1410 2360 5580
2021-02-26 09:30 5.78 855 13300 (2001) 94 (1964) 1280 138 230 307 376 656 1290 1410 2360 5580
2021-02-26 08:30 5.79 861 13300 (2001) 94 (1964) 1280 138 230 307 376 656 1290 1410 2360 5580
2021-02-26 07:30 5.79 861 13300 (2001) 94 (1964) 1280 138 230 307 376 656 1290 1410 2360 5580
2021-02-26 06:30 5.78 855 13300 (2001) 94 (1964) 1280 138 230 307 376 656 1290 1410 2360 5580
2021-02-26 05:30 5.80 868 13300 (2001) 94 (1964) 1280 138 230 307 376 656 1290 1410 2360 5580
2021-02-26 04:30 5.79 861 13300 (2001) 94 (1964) 1280 138 230 307 376 656 1290 1410 2360 5580
2021-02-26 03:30 5.80 868 13300 (2001) 94 (1964) 1280 138 230 307 376 656 1290 1410 2360 5580
2021-02-26 02:30 5.80 868 13300 (2001) 94 (1964) 1280 138 230 307 376 656 1290 1410 2360 5580
2021-02-26 01:30 5.79 861 13300 (2001) 94 (1964) 1280 138 230 307 376 656 1290 1410 2360 5580
2021-02-26 00:30 5.79 861 13300 (2001) 94 (1964) 1280 138 230 307 376 656 1290 1410 2360 5580
2021-02-25 23:30 5.78 855 31300 (2018) 95 (1964) 1740 135 223 318 366 642 1360 1570 2630 4880
2021-02-25 22:30 5.79 861 31300 (2018) 95 (1964) 1740 135 223 318 366 642 1360 1570 2630 4880
2021-02-25 21:30 5.79 918 31300 (2018) 95 (1964) 1740 135 223 318 366 642 1360 1570 2630 4880
2021-02-25 20:30 5.80 925 31300 (2018) 95 (1964) 1740 135 223 318 366 642 1360 1570 2630 4880
2021-02-25 19:30 5.80 925 31300 (2018) 95 (1964) 1740 135 223 318 366 642 1360 1570 2630 4880
2021-02-25 18:30 5.82 939 31300 (2018) 95 (1964) 1740 135 223 318 366 642 1360 1570 2630 4880
2021-02-25 17:30 5.81 932 31300 (2018) 95 (1964) 1740 135 223 318 366 642 1360 1570 2630 4880
2021-02-25 16:30 5.79 918 31300 (2018) 95 (1964) 1740 135 223 318 366 642 1360 1570 2630 4880
2021-02-25 15:30 5.82 939 31300 (2018) 95 (1964) 1740 135 223 318 366 642 1360 1570 2630 4880
2021-02-25 14:30 5.80 925 31300 (2018) 95 (1964) 1740 135 223 318 366 642 1360 1570 2630 4880
2021-02-25 13:30 5.81 932 31300 (2018) 95 (1964) 1740 135 223 318 366 642 1360 1570 2630 4880
2021-02-25 12:30 5.84 954 31300 (2018) 95 (1964) 1740 135 223 318 366 642 1360 1570 2630 4880
2021-02-25 11:30 5.81 932 31300 (2018) 95 (1964) 1740 135 223 318 366 642 1360 1570 2630 4880
2021-02-25 10:30 5.82 939 31300 (2018) 95 (1964) 1740 135 223 318 366 642 1360 1570 2630 4880
2021-02-25 09:30 5.83 947 31300 (2018) 95 (1964) 1740 135 223 318 366 642 1360 1570 2630 4880
2021-02-25 08:30 5.82 939 31300 (2018) 95 (1964) 1740 135 223 318 366 642 1360 1570 2630 4880
2021-02-25 07:30 5.83 947 31300 (2018) 95 (1964) 1740 135 223 318 366 642 1360 1570 2630 4880
2021-02-25 06:30 5.84 954 31300 (2018) 95 (1964) 1740 135 223 318 366 642 1360 1570 2630 4880
2021-02-25 05:30 5.82 939 31300 (2018) 95 (1964) 1740 135 223 318 366 642 1360 1570 2630 4880
2021-02-25 04:30 5.83 947 31300 (2018) 95 (1964) 1740 135 223 318 366 642 1360 1570 2630 4880
2021-02-25 03:30 5.84 954 31300 (2018) 95 (1964) 1740 135 223 318 366 642 1360 1570 2630 4880
2021-02-25 02:30 5.83 947 31300 (2018) 95 (1964) 1740 135 223 318 366 642 1360 1570 2630 4880
2021-02-25 01:30 5.83 947 31300 (2018) 95 (1964) 1740 135 223 318 366 642 1360 1570 2630 4880
2021-02-25 00:30 5.84 954 31300 (2018) 95 (1964) 1740 135 223 318 366 642 1360 1570 2630 4880
2021-02-24 23:30 5.85 962 15400 (1985) 95 (1964) 1500 136 231 332 385 665 1400 1710 3330 7150
2021-02-24 22:30 5.84 954 15400 (1985) 95 (1964) 1500 136 231 332 385 665 1400 1710 3330 7150
2021-02-24 21:30 5.85 962 15400 (1985) 95 (1964) 1500 136 231 332 385 665 1400 1710 3330 7150
2021-02-24 20:30 5.85 962 15400 (1985) 95 (1964) 1500 136 231 332 385 665 1400 1710 3330 7150
2021-02-24 19:30 5.84 954 15400 (1985) 95 (1964) 1500 136 231 332 385 665 1400 1710 3330 7150
2021-02-24 18:30 5.83 947 15400 (1985) 95 (1964) 1500 136 231 332 385 665 1400 1710 3330 7150
2021-02-24 17:30 5.84 954 15400 (1985) 95 (1964) 1500 136 231 332 385 665 1400 1710 3330 7150
2021-02-24 16:30 5.86 969 15400 (1985) 95 (1964) 1500 136 231 332 385 665 1400 1710 3330 7150
2021-02-24 15:30 5.84 954 15400 (1985) 95 (1964) 1500 136 231 332 385 665 1400 1710 3330 7150
2021-02-24 14:30 5.84 954 15400 (1985) 95 (1964) 1500 136 231 332 385 665 1400 1710 3330 7150
2021-02-24 13:30 5.83 947 15400 (1985) 95 (1964) 1500 136 231 332 385 665 1400 1710 3330 7150
2021-02-24 12:30 5.85 962 15400 (1985) 95 (1964) 1500 136 231 332 385 665 1400 1710 3330 7150
2021-02-24 11:30 5.86 969 15400 (1985) 95 (1964) 1500 136 231 332 385 665 1400 1710 3330 7150
2021-02-24 10:30 5.85 962 15400 (1985) 95 (1964) 1500 136 231 332 385 665 1400 1710 3330 7150
2021-02-24 09:30 5.84 954 15400 (1985) 95 (1964) 1500 136 231 332 385 665 1400 1710 3330 7150
2021-02-24 08:30 5.85 962 15400 (1985) 95 (1964) 1500 136 231 332 385 665 1400 1710 3330 7150
2021-02-24 07:30 5.84 954 15400 (1985) 95 (1964) 1500 136 231 332 385 665 1400 1710 3330 7150
2021-02-24 06:30 5.83 947 15400 (1985) 95 (1964) 1500 136 231 332 385 665 1400 1710 3330 7150
2021-02-24 05:30 5.85 962 15400 (1985) 95 (1964) 1500 136 231 332 385 665 1400 1710 3330 7150
2021-02-24 04:30 5.82 939 15400 (1985) 95 (1964) 1500 136 231 332 385 665 1400 1710 3330 7150
2021-02-24 03:30 5.83 947 15400 (1985) 95 (1964) 1500 136 231 332 385 665 1400 1710 3330 7150
2021-02-24 02:30 5.84 954 15400 (1985) 95 (1964) 1500 136 231 332 385 665 1400 1710 3330 7150
2021-02-24 01:30 5.82 939 15400 (1985) 95 (1964) 1500 136 231 332 385 665 1400 1710 3330 7150
2021-02-24 00:30 5.82 939 15400 (1985) 95 (1964) 1500 136 231 332 385 665 1400 1710 3330 7150
2021-02-23 23:30 5.82 939 7760 (1945) 100 (1964) 1270 139 219 335 378 652 1500 1800 3470 5200
2021-02-23 22:30 5.81 932 7760 (1945) 100 (1964) 1270 139 219 335 378 652 1500 1800 3470 5200
2021-02-23 21:30 5.82 939 7760 (1945) 100 (1964) 1270 139 219 335 378 652 1500 1800 3470 5200
2021-02-23 20:30 5.82 939 7760 (1945) 100 (1964) 1270 139 219 335 378 652 1500 1800 3470 5200
2021-02-23 19:30 5.81 932 7760 (1945) 100 (1964) 1270 139 219 335 378 652 1500 1800 3470 5200
2021-02-23 18:30 5.80 925 7760 (1945) 100 (1964) 1270 139 219 335 378 652 1500 1800 3470 5200
2021-02-23 17:30 5.78 911 7760 (1945) 100 (1964) 1270 139 219 335 378 652 1500 1800 3470 5200
2021-02-23 16:30 5.77 903 7760 (1945) 100 (1964) 1270 139 219 335 378 652 1500 1800 3470 5200
2021-02-23 15:30 5.76 896 7760 (1945) 100 (1964) 1270 139 219 335 378 652 1500 1800 3470 5200
2021-02-23 14:30 5.78 911 7760 (1945) 100 (1964) 1270 139 219 335 378 652 1500 1800 3470 5200
2021-02-23 13:30 5.77 903 7760 (1945) 100 (1964) 1270 139 219 335 378 652 1500 1800 3470 5200
2021-02-23 12:30 5.76 896 7760 (1945) 100 (1964) 1270 139 219 335 378 652 1500 1800 3470 5200
2021-02-23 11:30 5.74 882 7760 (1945) 100 (1964) 1270 139 219 335 378 652 1500 1800 3470 5200
2021-02-23 10:30 5.72 868 7760 (1945) 100 (1964) 1270 139 219 335 378 652 1500 1800 3470 5200
2021-02-23 09:30 5.72 868 7760 (1945) 100 (1964) 1270 139 219 335 378 652 1500 1800 3470 5200
2021-02-23 08:30 5.70 855 7760 (1945) 100 (1964) 1270 139 219 335 378 652 1500 1800 3470 5200
2021-02-23 07:30 5.69 848 7760 (1945) 100 (1964) 1270 139 219 335 378 652 1500 1800 3470 5200
2021-02-23 06:30 5.68 841 7760 (1945) 100 (1964) 1270 139 219 335 378 652 1500 1800 3470 5200
2021-02-23 05:30 5.67 834 7760 (1945) 100 (1964) 1270 139 219 335 378 652 1500 1800 3470 5200
2021-02-23 04:30 5.66 827 7760 (1945) 100 (1964) 1270 139 219 335 378 652 1500 1800 3470 5200
2021-02-23 03:30 5.64 814 7760 (1945) 100 (1964) 1270 139 219 335 378 652 1500 1800 3470 5200
2021-02-23 02:30 5.66 827 7760 (1945) 100 (1964) 1270 139 219 335 378 652 1500 1800 3470 5200
2021-02-23 00:30 5.62 801 7760 (1945) 100 (1964) 1270 139 219 335 378 652 1500 1800 3470 5200
2021-02-22 23:30 5.62 801 18500 (1997) 100 (1964) 1490 137 210 352 400 675 1320 1470 2550 6790
2021-02-22 22:30 5.61 794 18500 (1997) 100 (1964) 1490 137 210 352 400 675 1320 1470 2550 6790
2021-02-22 21:30 5.60 788 18500 (1997) 100 (1964) 1490 137 210 352 400 675 1320 1470 2550 6790
2021-02-22 20:30 5.59 781 18500 (1997) 100 (1964) 1490 137 210 352 400 675 1320 1470 2550 6790
2021-02-22 19:30 5.59 781 18500 (1997) 100 (1964) 1490 137 210 352 400 675 1320 1470 2550 6790
2021-02-22 18:30 5.59 781 18500 (1997) 100 (1964) 1490 137 210 352 400 675 1320 1470 2550 6790
2021-02-22 17:30 5.56 762 18500 (1997) 100 (1964) 1490 137 210 352 400 675 1320 1470 2550 6790
2021-02-22 16:30 5.58 775 18500 (1997) 100 (1964) 1490 137 210 352 400 675 1320 1470 2550 6790
2021-02-22 15:30 5.55 756 18500 (1997) 100 (1964) 1490 137 210 352 400 675 1320 1470 2550 6790
2021-02-22 14:30 5.55 756 18500 (1997) 100 (1964) 1490 137 210 352 400 675 1320 1470 2550 6790
2021-02-22 13:30 5.56 762 18500 (1997) 100 (1964) 1490 137 210 352 400 675 1320 1470 2550 6790
2021-02-22 12:30 5.56 762 18500 (1997) 100 (1964) 1490 137 210 352 400 675 1320 1470 2550 6790
2021-02-22 11:30 5.56 762 18500 (1997) 100 (1964) 1490 137 210 352 400 675 1320 1470 2550 6790
2021-02-22 10:30 5.55 756 18500 (1997) 100 (1964) 1490 137 210 352 400 675 1320 1470 2550 6790
2021-02-22 09:30 5.55 756 18500 (1997) 100 (1964) 1490 137 210 352 400 675 1320 1470 2550 6790
2021-02-22 08:30 5.56 762 18500 (1997) 100 (1964) 1490 137 210 352 400 675 1320 1470 2550 6790
2021-02-22 07:30 5.57 768 18500 (1997) 100 (1964) 1490 137 210 352 400 675 1320 1470 2550 6790
2021-02-22 06:30 5.57 768 18500 (1997) 100 (1964) 1490 137 210 352 400 675 1320 1470 2550 6790
2021-02-22 05:30 5.57 768 18500 (1997) 100 (1964) 1490 137 210 352 400 675 1320 1470 2550 6790
2021-02-22 04:30 5.53 743 18500 (1997) 100 (1964) 1490 137 210 352 400 675 1320 1470 2550 6790
2021-02-22 03:30 5.55 756 18500 (1997) 100 (1964) 1490 137 210 352 400 675 1320 1470 2550 6790
2021-02-22 02:30 5.56 762 18500 (1997) 100 (1964) 1490 137 210 352 400 675 1320 1470 2550 6790
2021-02-22 01:30 5.56 762 18500 (1997) 100 (1964) 1490 137 210 352 400 675 1320 1470 2550 6790
2021-02-22 00:30 5.55 756 18500 (1997) 100 (1964) 1490 137 210 352 400 675 1320 1470 2550 6790
2021-02-21 23:30 5.57 768 31400 (1951) 100 (1964) 1520 138 210 360 389 708 1290 1480 2920 4810
2021-02-21 22:30 5.55 756 31400 (1951) 100 (1964) 1520 138 210 360 389 708 1290 1480 2920 4810
2021-02-21 21:30 5.54 749 31400 (1951) 100 (1964) 1520 138 210 360 389 708 1290 1480 2920 4810
2021-02-21 20:30 5.55 756 31400 (1951) 100 (1964) 1520 138 210 360 389 708 1290 1480 2920 4810
2021-02-21 19:30 5.54 749 31400 (1951) 100 (1964) 1520 138 210 360 389 708 1290 1480 2920 4810
2021-02-21 18:30 5.54 749 31400 (1951) 100 (1964) 1520 138 210 360 389 708 1290 1480 2920 4810
2021-02-21 17:30 5.53 743 31400 (1951) 100 (1964) 1520 138 210 360 389 708 1290 1480 2920 4810
2021-02-21 16:30 5.53 743 31400 (1951) 100 (1964) 1520 138 210 360 389 708 1290 1480 2920 4810
2021-02-21 15:30 5.55 756 31400 (1951) 100 (1964) 1520 138 210 360 389 708 1290 1480 2920 4810
2021-02-21 14:30 5.52 737 31400 (1951) 100 (1964) 1520 138 210 360 389 708 1290 1480 2920 4810
2021-02-21 13:30 5.54 749 31400 (1951) 100 (1964) 1520 138 210 360 389 708 1290 1480 2920 4810
2021-02-21 12:30 5.54 749 31400 (1951) 100 (1964) 1520 138 210 360 389 708 1290 1480 2920 4810
2021-02-21 11:30 5.54 749 31400 (1951) 100 (1964) 1520 138 210 360 389 708 1290 1480 2920 4810
2021-02-21 10:30 5.54 749 31400 (1951) 100 (1964) 1520 138 210 360 389 708 1290 1480 2920 4810
2021-02-21 09:30 5.55 756 31400 (1951) 100 (1964) 1520 138 210 360 389 708 1290 1480 2920 4810
2021-02-21 08:30 5.54 749 31400 (1951) 100 (1964) 1520 138 210 360 389 708 1290 1480 2920 4810
2021-02-21 07:30 5.54 749 31400 (1951) 100 (1964) 1520 138 210 360 389 708 1290 1480 2920 4810
2021-02-21 06:30 5.54 749 31400 (1951) 100 (1964) 1520 138 210 360 389 708 1290 1480 2920 4810
2021-02-21 05:30 5.53 743 31400 (1951) 100 (1964) 1520 138 210 360 389 708 1290 1480 2920 4810
2021-02-21 04:30 5.54 749 31400 (1951) 100 (1964) 1520 138 210 360 389 708 1290 1480 2920 4810
2021-02-21 03:30 5.54 749 31400 (1951) 100 (1964) 1520 138 210 360 389 708 1290 1480 2920 4810
2021-02-21 02:30 5.53 743 31400 (1951) 100 (1964) 1520 138 210 360 389 708 1290 1480 2920 4810
2021-02-21 01:30 5.53 743 31400 (1951) 100 (1964) 1520 138 210 360 389 708 1290 1480 2920 4810
2021-02-21 00:30 5.53 743 31400 (1951) 100 (1964) 1520 138 210 360 389 708 1290 1480 2920 4810
2021-02-20 23:30 5.53 743 19700 (1951) 100 (1954) 1220 139 216 343 385 644 1130 1180 2200 4420
2021-02-20 22:30 5.54 749 19700 (1951) 100 (1954) 1220 139 216 343 385 644 1130 1180 2200 4420
2021-02-20 21:30 5.55 756 19700 (1951) 100 (1954) 1220 139 216 343 385 644 1130 1180 2200 4420
2021-02-20 20:30 5.53 743 19700 (1951) 100 (1954) 1220 139 216 343 385 644 1130 1180 2200 4420
2021-02-20 19:30 5.53 743 19700 (1951) 100 (1954) 1220 139 216 343 385 644 1130 1180 2200 4420
2021-02-20 18:30 5.54 749 19700 (1951) 100 (1954) 1220 139 216 343 385 644 1130 1180 2200 4420
2021-02-20 17:30 5.52 737 19700 (1951) 100 (1954) 1220 139 216 343 385 644 1130 1180 2200 4420
2021-02-20 16:30 5.53 743 19700 (1951) 100 (1954) 1220 139 216 343 385 644 1130 1180 2200 4420
2021-02-20 15:30 5.54 749 19700 (1951) 100 (1954) 1220 139 216 343 385 644 1130 1180 2200 4420
2021-02-20 14:30 5.52 737 19700 (1951) 100 (1954) 1220 139 216 343 385 644 1130 1180 2200 4420
2021-02-20 13:30 5.52 737 19700 (1951) 100 (1954) 1220 139 216 343 385 644 1130 1180 2200 4420
2021-02-20 12:30 5.54 749 19700 (1951) 100 (1954) 1220 139 216 343 385 644 1130 1180 2200 4420
2021-02-20 11:30 5.53 743 19700 (1951) 100 (1954) 1220 139 216 343 385 644 1130 1180 2200 4420
2021-02-20 10:30 5.53 743 19700 (1951) 100 (1954) 1220 139 216 343 385 644 1130 1180 2200 4420
2021-02-20 09:30 5.53 743 19700 (1951) 100 (1954) 1220 139 216 343 385 644 1130 1180 2200 4420
2021-02-20 08:30 5.55 756 19700 (1951) 100 (1954) 1220 139 216 343 385 644 1130 1180 2200 4420
2021-02-20 07:30 5.54 749 19700 (1951) 100 (1954) 1220 139 216 343 385 644 1130 1180 2200 4420
2021-02-20 06:30 5.54 749 19700 (1951) 100 (1954) 1220 139 216 343 385 644 1130 1180 2200 4420
2021-02-20 05:30 5.55 756 19700 (1951) 100 (1954) 1220 139 216 343 385 644 1130 1180 2200 4420
2021-02-20 04:30 5.55 756 19700 (1951) 100 (1954) 1220 139 216 343 385 644 1130 1180 2200 4420
2021-02-20 03:30 5.56 762 19700 (1951) 100 (1954) 1220 139 216 343 385 644 1130 1180 2200 4420
2021-02-20 02:30 5.55 756 19700 (1951) 100 (1954) 1220 139 216 343 385 644 1130 1180 2200 4420
2021-02-20 01:30 5.57 768 19700 (1951) 100 (1954) 1220 139 216 343 385 644 1130 1180 2200 4420
2021-02-20 00:30 5.54 749 19700 (1951) 100 (1954) 1220 139 216 343 385 644 1130 1180 2200 4420

A total of 183 rows are displayed for years 1936 through 2020.